Time;durP1;ratioP1;P1;durP2;ratioP2;P2;SDS_P1;SDS_P2;PMS_P1;PMS_P2;Temp;Humidity;BMP_temperature;BMP_pressure;BME280_temperature;BME280_humidity;BME280_pressure;Samples;Min_cycle;Max_cycle;Signal;HPM_P1;HPM_P2
2022/03/19 00:01:55;;;;;;;23.65;7.05;;;7.30;99.90;;;;;;6285670;22;20042;-95
2022/03/19 00:04:21;;;;;;;23.67;6.18;;;7.20;99.90;;;;;;6284825;22;20022;-95
2022/03/19 00:06:47;;;;;;;15.73;5.05;;;7.20;99.90;;;;;;6286004;22;19999;-93
2022/03/19 00:09:14;;;;;;;28.08;6.93;;;7.10;99.90;;;;;;6286056;22;20018;-93
2022/03/19 00:11:40;;;;;;;22.67;6.60;;;7.10;99.90;;;;;;6287715;22;20447;-95
2022/03/19 00:14:06;;;;;;;22.25;6.70;;;7.10;99.90;;;;;;6285918;22;20036;-94
2022/03/19 00:16:32;;;;;;;38.47;8.00;;;7.10;99.90;;;;;;6285660;22;20007;-95
2022/03/19 00:19:00;;;;;;;19.98;6.28;;;7.10;99.90;;;;;;6286880;22;20334;-96
2022/03/19 00:21:26;;;;;;;23.98;7.47;;;7.00;99.90;;;;;;6286493;22;20007;-94
2022/03/19 00:23:52;;;;;;;15.93;6.10;;;7.00;99.90;;;;;;6285961;22;20090;-94
2022/03/19 00:26:18;;;;;;;29.08;6.63;;;6.90;99.90;;;;;;6313936;22;20014;-94
2022/03/19 00:28:44;;;;;;;22.02;7.05;;;6.90;99.90;;;;;;6285914;22;20038;-93
2022/03/19 00:31:09;;;;;;;23.23;6.53;;;6.80;99.90;;;;;;6285651;22;20003;-95
2022/03/19 00:33:35;;;;;;;22.42;6.60;;;6.80;99.90;;;;;;6285645;22;20003;-94
2022/03/19 00:36:01;;;;;;;26.45;9.30;;;6.80;99.90;;;;;;6284517;22;20101;-92
2022/03/19 00:38:27;;;;;;;28.67;8.60;;;6.70;99.90;;;;;;6285947;22;20067;-94
2022/03/19 00:40:53;;;;;;;22.33;6.13;;;6.70;99.90;;;;;;6287656;22;20007;-94
2022/03/19 00:43:22;;;;;;;23.08;6.75;;;6.60;99.90;;;;;;6285344;22;20015;-93
2022/03/19 00:45:51;;;;;;;25.50;6.63;;;6.60;99.90;;;;;;6286411;22;20007;-94
2022/03/19 00:48:17;;;;;;;23.42;6.97;;;6.60;99.90;;;;;;6287277;22;20007;-93
2022/03/19 00:50:44;;;;;;;16.20;5.40;;;6.60;99.90;;;;;;6284749;22;20057;-93
2022/03/19 00:53:10;;;;;;;23.63;6.88;;;6.60;99.90;;;;;;6290602;22;20007;-94
2022/03/19 00:55:36;;;;;;;17.50;5.65;;;6.50;99.90;;;;;;6289382;22;20006;-94
2022/03/19 00:58:02;;;;;;;28.80;7.00;;;6.50;99.90;;;;;;6283922;22;20061;-93
2022/03/19 01:00:28;;;;;;;14.73;6.00;;;6.50;99.90;;;;;;6284152;22;20064;-93
2022/03/19 01:02:55;;;;;;;18.35;6.82;;;6.40;99.90;;;;;;6286255;22;20011;-93
2022/03/19 01:05:23;;;;;;;21.52;6.13;;;6.40;99.90;;;;;;6284667;22;20006;-95
2022/03/19 01:07:50;;;;;;;14.52;5.20;;;6.40;99.90;;;;;;6286483;22;20426;-94
2022/03/19 01:10:20;;;;;;;25.75;6.68;;;6.30;99.90;;;;;;6286740;22;20007;-93
2022/03/19 01:12:47;;;;;;;22.08;5.68;;;6.30;99.90;;;;;;6293309;22;20007;-94
2022/03/19 01:15:15;;;;;;;17.17;5.35;;;6.30;99.90;;;;;;6296977;22;20004;-94
2022/03/19 01:17:41;;;;;;;20.50;6.10;;;6.20;99.90;;;;;;6293348;22;20065;-92
2022/03/19 01:20:10;;;;;;;14.90;5.40;;;6.20;99.90;;;;;;6289366;22;20075;-95
2022/03/19 01:22:37;;;;;;;23.05;5.90;;;6.20;99.90;;;;;;6289112;22;20019;-92
2022/03/19 01:25:05;;;;;;;26.42;6.00;;;6.10;99.90;;;;;;6285671;22;20019;-92
2022/03/19 01:27:35;;;;;;;18.58;6.80;;;6.10;99.90;;;;;;6285357;22;20003;-95
2022/03/19 01:30:03;;;;;;;19.80;5.88;;;6.10;99.90;;;;;;6285177;22;20003;-94
2022/03/19 01:32:28;;;;;;;20.10;5.43;;;6.00;99.90;;;;;;6284640;22;20031;-94
2022/03/19 01:34:54;;;;;;;17.98;5.10;;;6.00;99.90;;;;;;6285462;22;19999;-94
2022/03/19 01:37:23;;;;;;;11.38;4.10;;;5.90;99.90;;;;;;6286936;22;20007;-95
2022/03/19 01:39:53;;;;;;;23.35;5.72;;;5.90;99.90;;;;;;6288392;22;20021;-93
2022/03/19 01:42:32;;;;;;;12.98;5.40;;;5.90;99.90;;;;;;6288585;22;20429;-96
2022/03/19 01:44:59;;;;;;;21.20;5.78;;;5.90;99.90;;;;;;6287187;22;20011;-94
2022/03/19 01:47:27;;;;;;;25.10;6.82;;;5.90;99.90;;;;;;6290078;22;20018;-95
2022/03/19 01:49:52;;;;;;;19.98;5.82;;;5.80;99.90;;;;;;6292213;22;20030;-96
2022/03/19 01:52:19;;;;;;;16.80;4.97;;;5.80;99.90;;;;;;6294738;22;20000;-93
2022/03/19 01:54:48;;;;;;;23.88;6.63;;;5.70;99.90;;;;;;6307873;22;20019;-94
2022/03/19 01:57:20;;;;;;;25.23;7.03;;;5.70;99.90;;;;;;6301919;22;20067;-95
2022/03/19 01:59:47;;;;;;;15.05;5.65;;;5.70;99.90;;;;;;6277878;22;20008;-94
2022/03/19 02:02:21;;;;;;;17.90;6.40;;;5.60;99.90;;;;;;6332596;22;20000;-94
2022/03/19 02:07:54;;;;;;;24.23;5.43;;;5.60;99.90;;;;;;6328959;22;20076;-95
2022/03/19 02:10:41;;;;;;;21.52;7.70;;;5.50;99.90;;;;;;6306918;22;20022;-95
2022/03/19 02:13:10;;;;;;;23.45;7.00;;;5.50;99.90;;;;;;6305555;22;19979;-95
2022/03/19 02:16:00;;;;;;;22.58;6.20;;;5.40;99.90;;;;;;6305431;22;20006;-94
2022/03/19 02:18:52;;;;;;;21.67;7.05;;;5.40;99.90;;;;;;6332300;22;20018;-94
2022/03/19 02:21:52;;;;;;;27.60;7.15;;;5.40;99.90;;;;;;6332475;22;20017;-95
2022/03/19 02:27:52;;;;;;;23.08;6.55;;;5.20;99.90;;;;;;6332993;22;20006;-96
2022/03/19 02:31:26;;;;;;;17.52;6.55;;;5.10;99.90;;;;;;6272325;22;19984;-95
2022/03/19 02:34:57;;;;;;;23.52;7.18;;;5.10;99.90;;;;;;6247029;23;19996;-95
2022/03/19 02:38:08;;;;;;;18.45;6.38;;;5.10;99.90;;;;;;6245483;23;20005;-92
2022/03/19 02:43:29;;;;;;;21.20;7.00;;;5.00;99.90;;;;;;6270025;23;20171;-93
2022/03/19 02:45:59;;;;;;;18.50;5.60;;;4.90;99.90;;;;;;6244203;23;20012;-94
2022/03/19 02:48:25;;;;;;;17.40;6.50;;;4.90;99.90;;;;;;6268262;23;20015;-93
2022/03/19 02:50:51;;;;;;;26.25;7.18;;;4.90;99.90;;;;;;6236939;23;20004;-93
2022/03/19 02:53:17;;;;;;;18.33;5.97;;;4.90;99.90;;;;;;6240419;23;20038;-94
2022/03/19 02:55:46;;;;;;;13.60;4.80;;;4.80;99.90;;;;;;6233728;23;20004;-94
2022/03/19 02:58:12;;;;;;;19.38;5.30;;;4.80;99.90;;;;;;6230967;23;20050;-94
2022/03/19 03:00:40;;;;;;;12.80;4.82;;;4.80;99.90;;;;;;6247159;22;20007;-95
2022/03/19 03:03:07;;;;;;;18.98;3.60;;;4.80;99.90;;;;;;6293198;22;20011;-95
2022/03/19 03:05:35;;;;;;;17.67;4.60;;;4.80;99.90;;;;;;6299127;22;20015;-94
2022/03/19 03:08:02;;;;;;;19.85;3.60;;;4.90;99.90;;;;;;6298500;22;20502;-93
2022/03/19 03:10:29;;;;;;;13.55;3.53;;;4.90;99.90;;;;;;6297181;22;20003;-94
2022/03/19 03:12:54;;;;;;;14.20;3.55;;;5.00;99.90;;;;;;6301699;22;20029;-94
2022/03/19 03:15:35;;;;;;;15.43;4.10;;;5.10;99.90;;;;;;6305061;22;20003;-94
2022/03/19 03:18:22;;;;;;;22.02;4.13;;;5.10;99.90;;;;;;6303212;22;19995;-96
2022/03/19 03:21:32;;;;;;;13.30;3.13;;;5.20;99.90;;;;;;6280086;22;19999;-94
2022/03/19 03:29:37;;;;;;;19.75;3.58;;;5.30;99.90;;;;;;6244721;22;20008;-95
2022/03/19 03:32:03;;;;;;;16.77;3.13;;;5.40;99.90;;;;;;6218106;23;19999;-93
2022/03/19 03:34:28;;;;;;;16.42;3.28;;;5.40;99.90;;;;;;6244270;22;20142;-95
2022/03/19 03:36:54;;;;;;;21.83;3.80;;;5.50;99.90;;;;;;6243694;22;20015;-95
2022/03/19 03:39:22;;;;;;;22.02;4.00;;;5.50;99.90;;;;;;6210155;23;20005;-94
2022/03/19 03:41:48;;;;;;;16.25;3.67;;;5.60;99.90;;;;;;6210215;23;20011;-93
2022/03/19 03:44:14;;;;;;;29.13;4.97;;;5.60;99.90;;;;;;6207348;23;20013;-95
2022/03/19 03:46:40;;;;;;;25.20;4.25;;;5.60;99.90;;;;;;6235448;23;20000;-93
2022/03/19 03:49:06;;;;;;;19.42;4.68;;;5.70;99.90;;;;;;6205425;23;20008;-93
2022/03/19 03:51:32;;;;;;;22.10;4.88;;;5.70;99.90;;;;;;6203153;23;20024;-94
2022/03/19 03:53:58;;;;;;;18.10;4.22;;;5.70;99.90;;;;;;6201317;23;20008;-94
2022/03/19 03:56:24;;;;;;;23.15;4.53;;;5.70;99.90;;;;;;6202170;23;20005;-94
2022/03/19 03:58:50;;;;;;;23.63;4.47;;;5.70;99.90;;;;;;6200066;23;20004;-94
2022/03/19 04:01:17;;;;;;;24.10;5.13;;;5.70;99.90;;;;;;6198967;23;20005;-93
2022/03/19 04:03:43;;;;;;;18.50;5.72;;;5.70;99.90;;;;;;6224748;23;20028;-93
2022/03/19 04:06:09;;;;;;;24.25;5.68;;;5.70;99.90;;;;;;6196845;23;20084;-93
2022/03/19 04:08:35;;;;;;;25.23;6.68;;;5.70;99.90;;;;;;6201024;23;20005;-95
2022/03/19 04:11:01;;;;;;;25.15;6.50;;;5.70;99.90;;;;;;6198137;23;20091;-92
2022/03/19 04:13:27;;;;;;;24.45;6.88;;;5.70;99.90;;;;;;6228232;23;20056;-95
2022/03/19 04:15:53;;;;;;;25.50;7.35;;;5.70;99.90;;;;;;6205672;23;20001;-95
2022/03/19 04:18:19;;;;;;;33.58;8.75;;;5.70;99.90;;;;;;6206872;23;20023;-94
2022/03/19 04:20:45;;;;;;;25.77;8.18;;;5.70;99.90;;;;;;6189152;23;20036;-95
2022/03/19 04:23:13;;;;;;;31.17;9.07;;;5.70;99.90;;;;;;6214474;23;20339;-95
2022/03/19 04:25:40;;;;;;;29.67;9.15;;;5.60;99.90;;;;;;6215513;23;20016;-95
2022/03/19 04:28:07;;;;;;;29.25;8.20;;;5.60;99.90;;;;;;6214752;23;20024;-95
2022/03/19 04:30:32;;;;;;;33.08;10.35;;;5.60;99.90;;;;;;6213116;23;20080;-95
2022/03/19 04:33:02;;;;;;;30.10;9.30;;;5.60;99.90;;;;;;6238962;23;20001;-94
2022/03/19 04:38:17;;;;;;;31.75;9.32;;;5.50;99.90;;;;;;6243686;22;19995;-95
2022/03/19 04:40:44;;;;;;;32.90;9.35;;;5.50;99.90;;;;;;6243276;23;20005;-96
2022/03/19 04:43:12;;;;;;;25.80;8.35;;;5.50;99.90;;;;;;6217281;23;20043;-96
2022/03/19 04:45:39;;;;;;;27.70;8.90;;;5.50;99.90;;;;;;6217382;23;19997;-96
2022/03/19 04:48:07;;;;;;;32.30;7.22;;;5.50;99.90;;;;;;6216933;23;19984;-95
2022/03/19 04:50:36;;;;;;;25.65;7.72;;;5.50;99.90;;;;;;6213274;22;20035;-95
2022/03/19 04:53:04;;;;;;;24.65;7.95;;;5.40;99.90;;;;;;6217022;23;19993;-95
2022/03/19 04:55:31;;;;;;;23.63;8.25;;;5.40;99.90;;;;;;6217131;23;20009;-96
2022/03/19 04:57:56;;;;;;;29.60;7.43;;;5.40;99.90;;;;;;6216315;23;20019;-95
2022/03/19 05:00:25;;;;;;;22.30;6.50;;;5.40;99.90;;;;;;6242291;22;19993;-95
2022/03/19 05:02:50;;;;;;;23.98;7.10;;;5.40;99.90;;;;;;6217074;23;20027;-95
2022/03/19 05:05:18;;;;;;;26.10;6.85;;;5.30;99.90;;;;;;6217724;23;20001;-96
2022/03/19 05:13:03;;;;;;;32.92;8.40;;;5.20;99.90;;;;;;6242609;22;20026;-95
2022/03/19 05:15:30;;;;;;;22.27;6.65;;;5.20;99.90;;;;;;6242083;23;19995;-95
2022/03/19 05:18:01;;;;;;;30.73;7.07;;;5.20;99.90;;;;;;6241147;23;20001;-95
2022/03/19 05:20:27;;;;;;;30.52;6.32;;;5.20;99.90;;;;;;6216398;22;20004;-95
2022/03/19 05:22:56;;;;;;;22.70;6.15;;;5.20;99.90;;;;;;6214931;23;20001;-95
2022/03/19 05:25:21;;;;;;;28.98;6.85;;;5.20;99.90;;;;;;6215282;23;19993;-95
2022/03/19 05:27:47;;;;;;;22.23;5.90;;;5.20;99.90;;;;;;6216156;23;20068;-95
2022/03/19 05:30:13;;;;;;;24.50;7.13;;;5.20;99.90;;;;;;6216890;23;20016;-94
2022/03/19 05:32:39;;;;;;;24.30;6.05;;;5.20;99.90;;;;;;6216868;23;20019;-96
2022/03/19 05:35:07;;;;;;;31.45;7.65;;;5.10;99.90;;;;;;6216961;23;20060;-95
2022/03/19 05:37:33;;;;;;;26.13;6.78;;;5.10;99.90;;;;;;6238907;22;20012;-95
2022/03/19 05:40:06;;;;;;;22.52;5.93;;;5.10;99.90;;;;;;6214333;23;19989;-95
2022/03/19 05:42:32;;;;;;;19.67;6.05;;;5.10;99.90;;;;;;6216367;23;20005;-95
2022/03/19 05:45:00;;;;;;;22.85;6.10;;;5.10;99.90;;;;;;6216170;23;20084;-95
2022/03/19 05:47:26;;;;;;;24.45;6.30;;;5.00;99.90;;;;;;6215935;23;20064;-95
2022/03/19 05:49:52;;;;;;;17.20;5.70;;;5.10;99.90;;;;;;6241119;23;20005;-95
2022/03/19 05:52:21;;;;;;;33.92;7.57;;;5.00;99.90;;;;;;6240381;23;20007;-94
2022/03/19 05:54:50;;;;;;;24.95;7.38;;;5.00;99.90;;;;;;6213315;23;20005;-94
2022/03/19 05:57:16;;;;;;;26.15;6.60;;;5.00;99.90;;;;;;6240616;23;20024;-95
2022/03/19 05:59:41;;;;;;;25.60;8.95;;;5.00;99.90;;;;;;6213718;23;20008;-95
2022/03/19 06:02:07;;;;;;;30.23;7.72;;;4.90;99.90;;;;;;6240949;22;20043;-95
2022/03/19 06:04:36;;;;;;;29.95;8.95;;;4.90;99.90;;;;;;6216600;23;20036;-95
2022/03/19 06:07:03;;;;;;;22.55;8.00;;;4.90;99.90;;;;;;6242262;23;20089;-95
2022/03/19 06:09:29;;;;;;;27.33;8.43;;;4.90;99.90;;;;;;6215676;23;20035;-94
2022/03/19 06:11:55;;;;;;;18.48;6.60;;;4.90;99.90;;;;;;6208626;23;20013;-95
2022/03/19 06:14:21;;;;;;;24.85;7.55;;;4.90;99.90;;;;;;6204903;23;20012;-95
2022/03/19 06:16:49;;;;;;;25.08;6.95;;;4.80;99.90;;;;;;6205058;23;20345;-94
2022/03/19 06:19:16;;;;;;;22.08;5.78;;;4.80;99.90;;;;;;6204143;23;20005;-94
2022/03/19 06:21:45;;;;;;;25.42;8.18;;;4.80;99.90;;;;;;6205544;23;20056;-95
2022/03/19 06:24:18;;;;;;;26.60;8.20;;;4.70;99.90;;;;;;6210922;23;20028;-95
2022/03/19 06:26:54;;;;;;;17.52;5.57;;;4.70;99.90;;;;;;6206118;23;20016;-95
2022/03/19 06:29:22;;;;;;;26.02;7.07;;;4.70;99.90;;;;;;6186090;23;20122;-95
2022/03/19 06:31:51;;;;;;;25.70;7.43;;;4.80;99.90;;;;;;6210457;23;19997;-94
2022/03/19 06:34:43;;;;;;;30.95;7.90;;;4.70;99.90;;;;;;6216003;23;20053;-96
2022/03/19 06:37:23;;;;;;;32.83;9.45;;;4.80;99.90;;;;;;6208832;23;20005;-94
2022/03/19 06:39:56;;;;;;;28.13;9.05;;;4.70;99.90;;;;;;6210050;23;20013;-95
2022/03/19 06:42:23;;;;;;;14.88;5.80;;;4.70;99.90;;;;;;6210151;23;20061;-94
2022/03/19 06:44:52;;;;;;;23.95;7.50;;;4.80;99.90;;;;;;6209834;23;20028;-95
2022/03/19 06:47:21;;;;;;;29.83;10.40;;;4.80;99.90;;;;;;6187207;23;20063;-93
2022/03/19 06:49:51;;;;;;;21.63;7.95;;;4.80;99.90;;;;;;6186370;23;20024;-95
2022/03/19 06:52:36;;;;;;;21.88;9.07;;;4.80;99.90;;;;;;6211008;23;20020;-94
2022/03/19 06:55:08;;;;;;;31.55;8.80;;;4.90;99.90;;;;;;6209391;23;19989;-95
2022/03/19 06:57:37;;;;;;;25.25;9.38;;;4.90;99.90;;;;;;6187141;23;20016;-95
2022/03/19 07:00:05;;;;;;;27.58;10.90;;;4.90;99.90;;;;;;6209643;23;20039;-95
2022/03/19 07:02:31;;;;;;;20.15;6.05;;;4.90;99.90;;;;;;6201113;23;20061;-94
2022/03/19 07:04:56;;;;;;;33.95;10.88;;;4.90;99.90;;;;;;6196405;23;20013;-94
2022/03/19 07:07:22;;;;;;;26.15;10.20;;;5.00;99.90;;;;;;6187525;23;20009;-94
2022/03/19 07:09:49;;;;;;;29.55;9.63;;;5.00;99.90;;;;;;6188461;23;20009;-94
2022/03/19 07:12:15;;;;;;;26.05;8.93;;;5.00;99.90;;;;;;6187903;23;20036;-93
2022/03/19 07:14:41;;;;;;;20.77;7.20;;;5.00;99.90;;;;;;6188480;23;20064;-94
2022/03/19 07:17:07;;;;;;;23.60;8.57;;;5.00;99.90;;;;;;6186715;23;20005;-92
2022/03/19 07:19:33;;;;;;;28.42;9.00;;;5.00;99.90;;;;;;6186974;23;20009;-93
2022/03/19 07:21:58;;;;;;;21.83;7.40;;;5.10;99.90;;;;;;6187670;23;20370;-93
2022/03/19 07:24:24;;;;;;;32.10;10.50;;;5.10;99.90;;;;;;6188025;23;20028;-93
2022/03/19 07:26:50;;;;;;;27.52;8.75;;;5.10;99.90;;;;;;6190340;23;20005;-92
2022/03/19 07:29:19;;;;;;;22.15;9.77;;;5.10;99.90;;;;;;6188955;23;20390;-93
2022/03/19 07:31:45;;;;;;;27.27;10.68;;;5.20;99.90;;;;;;6191491;23;20001;-94
2022/03/19 07:34:10;;;;;;;36.50;11.52;;;5.20;99.90;;;;;;6188142;23;20009;-92
2022/03/19 07:36:36;;;;;;;18.50;6.50;;;5.20;99.90;;;;;;6189248;23;20002;-94
2022/03/19 07:39:02;;;;;;;32.80;11.65;;;5.30;99.90;;;;;;6190285;23;20009;-93
2022/03/19 07:41:48;;;;;;;24.52;7.32;;;5.30;99.90;;;;;;6197295;23;20005;-92
2022/03/19 07:44:14;;;;;;;17.73;5.50;;;5.40;99.90;;;;;;6190160;23;20017;-95
2022/03/19 07:46:42;;;;;;;21.98;7.90;;;5.40;99.90;;;;;;6191705;23;20223;-93
2022/03/19 07:49:07;;;;;;;32.05;10.55;;;5.50;99.90;;;;;;6188376;23;20025;-95
2022/03/19 07:51:33;;;;;;;28.98;11.05;;;5.50;99.90;;;;;;6189662;23;20001;-95
2022/03/19 07:53:59;;;;;;;22.08;7.82;;;5.50;99.90;;;;;;6192536;23;19997;-95
2022/03/19 07:56:25;;;;;;;35.35;12.65;;;5.60;99.90;;;;;;6199084;23;20012;-94
2022/03/19 07:58:51;;;;;;;30.08;10.60;;;5.60;99.90;;;;;;6201750;23;20012;-95
2022/03/19 08:01:18;;;;;;;32.70;11.68;;;5.60;99.90;;;;;;6200379;23;20001;-95
2022/03/19 08:03:46;;;;;;;27.85;12.55;;;5.70;99.90;;;;;;6197511;23;20005;-95
2022/03/19 08:06:12;;;;;;;31.52;11.70;;;5.70;99.90;;;;;;6193937;23;20067;-94
2022/03/19 08:08:38;;;;;;;32.30;12.23;;;5.70;99.90;;;;;;6188351;23;20056;-94
2022/03/19 08:11:04;;;;;;;38.83;12.48;;;5.80;99.90;;;;;;6186998;23;20020;-93
2022/03/19 08:13:30;;;;;;;30.30;9.82;;;5.90;99.90;;;;;;6192176;23;20135;-94
2022/03/19 08:15:56;;;;;;;31.58;11.73;;;5.90;99.90;;;;;;6193069;23;20004;-95
2022/03/19 08:18:23;;;;;;;28.25;10.60;;;6.00;99.90;;;;;;6192906;23;20015;-94
2022/03/19 08:20:49;;;;;;;32.60;10.30;;;6.10;99.90;;;;;;6196681;23;20008;-93
2022/03/19 08:23:15;;;;;;;25.40;9.23;;;6.30;99.90;;;;;;6229844;23;20068;-93
2022/03/19 08:25:42;;;;;;;31.70;10.10;;;6.40;99.90;;;;;;6193382;23;20008;-93
2022/03/19 08:28:08;;;;;;;33.78;11.73;;;6.50;99.90;;;;;;6195572;23;20377;-91
2022/03/19 08:30:38;;;;;;;35.38;11.10;;;6.70;99.90;;;;;;6194264;23;20005;-92
2022/03/19 08:33:03;;;;;;;30.88;10.50;;;6.80;99.90;;;;;;6196834;23;20004;-93
2022/03/19 08:35:29;;;;;;;25.50;10.70;;;6.90;99.90;;;;;;6195309;23;20004;-92
2022/03/19 08:40:39;;;;;;;35.63;11.75;;;7.10;99.90;;;;;;6218721;23;20012;-93
2022/03/19 08:43:04;;;;;;;30.58;10.65;;;7.20;99.90;;;;;;6192136;23;20056;-94
2022/03/19 08:45:30;;;;;;;32.45;10.35;;;7.30;99.90;;;;;;6192644;23;20020;-93
2022/03/19 08:47:56;;;;;;;26.33;10.07;;;7.40;99.90;;;;;;6192141;23;20036;-94
2022/03/19 08:50:24;;;;;;;38.38;12.55;;;7.50;99.90;;;;;;6194940;23;20011;-92
2022/03/19 08:52:50;;;;;;;31.10;10.98;;;7.60;99.90;;;;;;6194169;23;20008;-94
2022/03/19 08:55:16;;;;;;;32.55;9.90;;;7.70;99.90;;;;;;6192669;23;20005;-93
2022/03/19 08:57:42;;;;;;;28.98;11.32;;;7.80;99.90;;;;;;6193660;23;20007;-92
2022/03/19 09:00:08;;;;;;;30.90;11.57;;;7.80;99.90;;;;;;6193592;23;20271;-94
2022/03/19 09:02:34;;;;;;;33.55;9.93;;;7.90;99.90;;;;;;6193132;23;20322;-92
2022/03/19 09:05:00;;;;;;;31.45;10.35;;;8.00;99.90;;;;;;6192868;23;20042;-95
2022/03/19 09:07:26;;;;;;;43.85;11.50;;;8.10;99.90;;;;;;6191606;23;20009;-93
2022/03/19 09:09:54;;;;;;;25.50;8.73;;;8.10;99.90;;;;;;6193558;23;20071;-94
2022/03/19 09:12:22;;;;;;;24.40;9.18;;;8.20;99.90;;;;;;6195301;23;20099;-93
2022/03/19 09:14:47;;;;;;;31.10;9.20;;;8.30;99.90;;;;;;6196529;23;20007;-92
2022/03/19 09:17:14;;;;;;;21.85;9.00;;;8.40;99.90;;;;;;6196176;23;20029;-94
2022/03/19 09:19:39;;;;;;;25.92;9.35;;;8.50;99.90;;;;;;6166991;23;20015;-92
2022/03/19 09:22:05;;;;;;;23.90;9.98;;;8.60;99.90;;;;;;6192790;23;20004;-93
2022/03/19 09:24:31;;;;;;;25.42;9.52;;;8.70;99.90;;;;;;6192474;23;20009;-92
2022/03/19 09:26:58;;;;;;;24.92;10.27;;;8.80;99.90;;;;;;6191149;23;20064;-93
2022/03/19 09:29:24;;;;;;;30.65;8.60;;;8.90;99.90;;;;;;6191468;23;20009;-93
2022/03/19 09:31:51;;;;;;;19.65;6.80;;;9.10;99.90;;;;;;6194160;23;20043;-93
2022/03/19 09:34:16;;;;;;;27.15;8.48;;;9.20;99.90;;;;;;6195785;23;20018;-94
2022/03/19 09:36:46;;;;;;;27.45;7.55;;;9.40;99.90;;;;;;6201941;23;20333;-95
2022/03/19 09:39:16;;;;;;;28.90;8.07;;;9.50;99.90;;;;;;6201706;23;20009;-93
2022/03/19 09:41:43;;;;;;;18.55;6.18;;;9.60;99.90;;;;;;6194249;23;20001;-92
2022/03/19 09:44:12;;;;;;;21.75;6.68;;;9.80;99.90;;;;;;6197180;23;20008;-92
2022/03/19 09:46:38;;;;;;;18.20;5.82;;;9.90;99.90;;;;;;6195256;23;20001;-94
2022/03/19 09:49:04;;;;;;;21.90;5.28;;;10.00;99.90;;;;;;6198164;23;20099;-93
2022/03/19 09:51:34;;;;;;;23.67;7.25;;;10.20;99.90;;;;;;6197749;23;20083;-92
2022/03/19 09:54:00;;;;;;;16.23;5.83;;;10.30;99.90;;;;;;6197675;23;20017;-94
2022/03/19 09:56:26;;;;;;;19.05;5.95;;;10.50;99.90;;;;;;6198334;23;20791;-92
2022/03/19 09:58:52;;;;;;;16.25;5.30;;;10.70;99.90;;;;;;6194553;23;20336;-94
2022/03/19 10:01:18;;;;;;;18.75;5.68;;;10.80;99.90;;;;;;6197903;23;20009;-93
2022/03/19 10:03:45;;;;;;;19.30;6.55;;;10.90;99.90;;;;;;6201722;23;20498;-94
2022/03/19 10:08:59;;;;;;;19.60;5.00;;;11.20;99.90;;;;;;6237144;22;20000;-93
2022/03/19 10:11:34;;;;;;;23.83;5.45;;;11.40;99.90;;;;;;6217107;23;20017;-94
2022/03/19 10:14:06;;;;;;;25.95;6.57;;;11.60;99.90;;;;;;6194350;23;20016;-96
2022/03/19 10:16:34;;;;;;;20.15;6.32;;;11.80;99.90;;;;;;6194412;23;20020;-95
2022/03/19 10:19:03;;;;;;;15.00;4.60;;;12.00;99.90;;;;;;6209743;23;20091;-94
2022/03/19 10:21:30;;;;;;;22.48;6.05;;;12.30;99.90;;;;;;6207396;23;20041;-94
2022/03/19 10:23:59;;;;;;;23.30;6.57;;;12.60;99.50;;;;;;6179839;23;20024;-93
2022/03/19 10:26:31;;;;;;;19.80;6.20;;;12.70;98.90;;;;;;6201861;23;20428;-93
2022/03/19 10:29:06;;;;;;;20.10;5.82;;;12.90;97.10;;;;;;6197820;23;20008;-96
2022/03/19 10:31:50;;;;;;;22.05;6.93;;;12.90;96.30;;;;;;6203912;23;20004;-95
2022/03/19 10:34:17;;;;;;;19.83;6.03;;;13.00;96.00;;;;;;6205873;23;20028;-95
2022/03/19 10:36:47;;;;;;;19.63;6.22;;;13.10;95.80;;;;;;6176756;23;20013;-95
2022/03/19 10:39:27;;;;;;;20.35;6.68;;;13.20;94.60;;;;;;6198657;23;20005;-94
2022/03/19 10:41:54;;;;;;;20.10;5.90;;;13.20;93.80;;;;;;6200154;23;19997;-94
2022/03/19 10:44:24;;;;;;;19.65;5.55;;;13.30;93.50;;;;;;6201410;23;20020;-95
2022/03/19 10:46:58;;;;;;;24.98;5.47;;;13.50;93.50;;;;;;6205032;23;20008;-95
2022/03/19 10:49:30;;;;;;;20.50;6.07;;;13.80;93.00;;;;;;6203822;23;20009;-95
2022/03/19 10:51:58;;;;;;;16.73;6.53;;;13.90;92.20;;;;;;6178237;23;20032;-94
2022/03/19 10:54:25;;;;;;;19.50;5.57;;;14.00;91.60;;;;;;6212137;23;20015;-92
2022/03/19 10:56:54;;;;;;;15.02;4.97;;;14.10;90.20;;;;;;6203727;23;20004;-94
2022/03/19 10:59:22;;;;;;;20.40;5.78;;;14.10;90.00;;;;;;6201212;23;20191;-94
2022/03/19 11:01:49;;;;;;;16.85;5.82;;;14.30;90.20;;;;;;6195736;23;20376;-93
2022/03/19 11:04:15;;;;;;;17.23;5.72;;;14.60;89.30;;;;;;6197505;23;20017;-95
2022/03/19 11:06:44;;;;;;;18.98;5.60;;;14.60;87.20;;;;;;6195602;23;20001;-94
2022/03/19 11:09:15;;;;;;;15.15;4.40;;;14.70;86.90;;;;;;6196724;23;20012;-95
2022/03/19 11:11:53;;;;;;;15.02;4.25;;;14.90;86.50;;;;;;6196241;23;20013;-94
2022/03/19 11:14:25;;;;;;;14.35;3.63;;;15.20;85.20;;;;;;6202478;23;20012;-94
2022/03/19 11:17:25;;;;;;;9.73;3.10;;;15.50;82.80;;;;;;6203807;23;20005;-94
2022/03/19 11:20:02;;;;;;;8.13;2.80;;;15.80;80.00;;;;;;6177083;23;20013;-94
2022/03/19 11:22:50;;;;;;;11.15;2.90;;;15.90;77.40;;;;;;6195298;23;20252;-95
2022/03/19 11:25:31;;;;;;;9.48;3.35;;;15.90;76.00;;;;;;6192297;23;20028;-93
2022/03/19 11:28:01;;;;;;;10.90;2.70;;;16.10;75.10;;;;;;6193574;23;20112;-93
2022/03/19 11:30:38;;;;;;;10.02;3.00;;;16.20;74.40;;;;;;6193197;23;20004;-96
2022/03/19 11:33:17;;;;;;;8.50;3.22;;;16.40;73.10;;;;;;6167398;23;20005;-94
2022/03/19 11:35:56;;;;;;;13.02;2.85;;;16.50;71.60;;;;;;6190021;23;20009;-92
2022/03/19 11:38:23;;;;;;;9.85;2.90;;;16.70;71.60;;;;;;6195844;23;20005;-94
2022/03/19 11:40:56;;;;;;;11.73;2.83;;;17.00;70.60;;;;;;6193307;23;20004;-94
2022/03/19 11:43:25;;;;;;;6.72;2.65;;;17.10;69.30;;;;;;6207130;23;20012;-94
2022/03/19 11:45:54;;;;;;;9.75;2.60;;;17.30;68.50;;;;;;6198397;23;20013;-94
2022/03/19 11:48:36;;;;;;;12.13;2.53;;;17.60;68.40;;;;;;6190608;23;20012;-95
2022/03/19 11:51:14;;;;;;;8.38;2.63;;;17.90;67.30;;;;;;6191793;23;20005;-93
2022/03/19 11:53:59;;;;;;;10.02;2.40;;;18.10;65.60;;;;;;6192497;23;20009;-93
2022/03/19 11:56:35;;;;;;;9.93;2.78;;;18.10;64.70;;;;;;6197339;23;20008;-95
2022/03/19 11:59:04;;;;;;;11.10;2.47;;;18.20;64.30;;;;;;6193011;23;20012;-93
2022/03/19 12:01:45;;;;;;;8.85;2.38;;;18.10;63.40;;;;;;6190302;23;20004;-93
2022/03/19 12:04:11;;;;;;;8.02;2.30;;;18.10;62.90;;;;;;6187757;23;20055;-93
2022/03/19 12:06:48;;;;;;;9.23;2.53;;;18.20;63.10;;;;;;6188651;23;19997;-96
2022/03/19 12:09:14;;;;;;;9.45;3.13;;;18.40;62.70;;;;;;6188506;23;20436;-94
2022/03/19 12:11:40;;;;;;;9.65;3.38;;;18.40;61.90;;;;;;6189536;23;20024;-93
2022/03/19 12:14:15;;;;;;;11.05;2.88;;;18.50;61.40;;;;;;6188928;23;20096;-95
2022/03/19 12:16:45;;;;;;;5.95;2.72;;;18.40;60.30;;;;;;6190132;23;20012;-94
2022/03/19 12:19:11;;;;;;;9.65;3.20;;;18.40;60.50;;;;;;6190769;23;20107;-93
2022/03/19 12:21:43;;;;;;;10.10;3.00;;;18.40;60.20;;;;;;6188029;23;20421;-94
2022/03/19 12:24:26;;;;;;;8.43;2.75;;;18.30;59.60;;;;;;6190714;23;20012;-94
2022/03/19 12:26:52;;;;;;;7.90;2.40;;;18.30;59.80;;;;;;6192190;23;20009;-92
2022/03/19 12:29:20;;;;;;;8.43;3.60;;;18.30;59.40;;;;;;6187718;23;20005;-93
2022/03/19 12:31:47;;;;;;;10.40;2.60;;;18.20;58.50;;;;;;6187390;23;20005;-94
2022/03/19 12:34:25;;;;;;;11.80;3.53;;;18.10;58.80;;;;;;6186883;23;20005;-93
2022/03/19 12:36:57;;;;;;;8.10;2.67;;;18.10;59.00;;;;;;6190261;23;20011;-91
2022/03/19 12:39:23;;;;;;;10.57;2.60;;;18.10;58.40;;;;;;6187938;23;20009;-92
2022/03/19 12:41:49;;;;;;;9.40;2.88;;;18.10;58.80;;;;;;6186788;23;20005;-91
2022/03/19 12:44:19;;;;;;;8.82;2.88;;;18.20;58.50;;;;;;6186740;23;20023;-92
2022/03/19 12:46:47;;;;;;;7.38;2.50;;;18.20;58.20;;;;;;6186842;23;20382;-92
2022/03/19 12:49:15;;;;;;;11.10;3.33;;;18.20;58.20;;;;;;6186164;23;20012;-94
2022/03/19 12:51:47;;;;;;;9.20;2.70;;;18.30;58.30;;;;;;6185905;23;20075;-92
2022/03/19 12:54:18;;;;;;;8.88;2.92;;;18.30;58.30;;;;;;6186025;23;20020;-91
2022/03/19 12:56:45;;;;;;;9.52;3.13;;;18.20;58.10;;;;;;6187998;23;20417;-90
2022/03/19 12:59:25;;;;;;;7.97;2.78;;;18.30;58.00;;;;;;6191544;23;20019;-92
2022/03/19 13:01:53;;;;;;;8.43;2.85;;;18.30;57.90;;;;;;6185729;23;20013;-93
2022/03/19 13:04:24;;;;;;;10.60;3.78;;;18.50;57.90;;;;;;6185274;23;20020;-93
2022/03/19 13:06:51;;;;;;;6.47;2.83;;;18.70;57.70;;;;;;6186354;23;20008;-94
2022/03/19 13:09:31;;;;;;;8.57;3.10;;;18.80;57.70;;;;;;6185998;23;20009;-92
2022/03/19 13:11:58;;;;;;;9.32;3.38;;;19.00;57.10;;;;;;6186634;23;20408;-94
2022/03/19 13:14:24;;;;;;;8.15;2.85;;;19.10;56.90;;;;;;6191101;23;20069;-94
2022/03/19 13:16:54;;;;;;;10.70;3.13;;;19.20;56.70;;;;;;6191121;23;20009;-92
2022/03/19 13:19:21;;;;;;;8.05;2.70;;;19.30;57.00;;;;;;6199630;23;20019;-94
2022/03/19 13:21:52;;;;;;;9.00;3.30;;;19.50;56.90;;;;;;6186299;23;20008;-94
2022/03/19 13:24:20;;;;;;;11.80;3.10;;;19.70;56.90;;;;;;6186046;23;20017;-93